Jj Sky — VRJA6 — position and weather

sailwx.info

Track history (hours):
 
Tides and Currents Weather Stations Pressure Air Temp Water Temp Dewpoint Dewpoint Depression Visibility Wind Speed Wind Dir Waves Ship Positions

Jj Sky

Last reported at 2017-Mar-24 05:15 UTC. Time now 2017-Mar-30 06:38 UTC.
Position N 31°18' E 121°46'.

Length 148 m; draft 7.2 m.

Type: Ship (hazmat cat D). MMSI: 477397500.

Date/timePositionNaut miles runAvg speedWind from/ knotsBaromVisibWave heightAir tempDewpointWater temp
2017-Mar-24 05:15N 31°18' E 121°46'5 0.8
2017-Mar-23 22:25N 31°20' E 121°40'0 0.0
2017-Mar-23 21:08N 31°20' E 121°40'0 0.0
2017-Mar-23 20:29N 31°20' E 121°40'0 0.0
2017-Mar-23 19:28N 31°20' E 121°40'0 0.0
2017-Mar-23 18:28N 31°20' E 121°40'0 0.0
2017-Mar-23 17:33N 31°20' E 121°40'0 0.0
2017-Mar-23 16:33N 31°20' E 121°40'0 0.0
2017-Mar-23 15:32N 31°20' E 121°40'5 4.6
2017-Mar-23 14:33N 31°18' E 121°45'1010.2
2017-Mar-23 13:33N 31°15' E 121°57'1010.2
2017-Mar-23 12:33N 31°12' E 122°08'9 9.2
2017-Mar-23 11:33N 31°07' E 122°17'  
2017-Mar-21 05:33N 34°36' E 134°54'1514.9
2017-Mar-21 04:33N 34°37' E 135°12'3 2.9
2017-Mar-21 03:27N 34°39' E 135°15'0 0.0
2017-Mar-21 02:27N 34°39' E 135°15'0 0.0
2017-Mar-21 01:32N 34°39' E 135°15'0 0.0
2017-Mar-21 00:32N 34°39' E 135°15'0 0.1
2017-Mar-20 23:29N 34°39' E 135°15'0 0.1
2017-Mar-20 22:29N 34°39' E 135°15'6 6.2
2017-Mar-20 21:33N 34°39' E 135°21'2 2.0
2017-Mar-20 20:28N 34°39' E 135°24'0 0.0
2017-Mar-20 19:14N 34°39' E 135°24'0 0.0
2017-Mar-20 18:20N 34°39' E 135°24'0 0.0
2017-Mar-20 17:26N 34°39' E 135°24'0 0.0
2017-Mar-20 16:31N 34°39' E 135°24'0 0.1
2017-Mar-20 15:19N 34°39' E 135°24'0 0.1
2017-Mar-20 14:24N 34°39' E 135°24'0 0.0
2017-Mar-20 13:30N 34°39' E 135°24'0 0.0
2017-Mar-20 12:23N 34°39' E 135°24'0 0.0
2017-Mar-20 11:23N 34°39' E 135°24'0 0.0
2017-Mar-20 10:17N 34°39' E 135°24'0 0.0
2017-Mar-20 06:18N 34°39' E 135°24'0 0.0
2017-Mar-20 05:26N 34°39' E 135°24'0 0.0
2017-Mar-20 02:07N 34°39' E 135°24'0 0.0
2017-Mar-20 01:18N 34°39' E 135°24'0 0.1
2017-Mar-20 00:30N 34°39' E 135°24'0 0.1
2017-Mar-19 23:23N 34°39' E 135°24'0 0.1
2017-Mar-19 22:23N 34°39' E 135°24'1 1.4
2017-Mar-19 21:33N 34°38' E 135°23'1312.9
2017-Mar-19 20:33N 34°29' E 135°12'1211.5
2017-Mar-19 19:30N 34°21' E 135°02'1111.6
2017-Mar-19 18:33N 34°10' E 134°58'55613.4
2017-Mar-18 01:12N 31°03' E 124°36'914.4
2017-Mar-18 00:33N 31°03' E 124°26'1515.2
2017-Mar-17 23:34N 31°04' E 124°08'1615.7
2017-Mar-17 22:33N 31°04' E 123°50'1716.1
2017-Mar-17 21:32N 31°03' E 123°30'5215.5
2017-Mar-17 18:09N 31°06' E 122°29'711.8
2017-Mar-17 17:33N 31°06' E 122°21'1312.9
2017-Mar-17 16:33N 31°12' E 122°08'1211.6
2017-Mar-17 15:34N 31°16' E 121°55'1312.8
2017-Mar-17 14:33N 31°20' E 121°41'1 1.0
2017-Mar-17 13:33N 31°20' E 121°40'0 0.0
2017-Mar-17 12:32N 31°20' E 121°40'0 0.0
2017-Mar-17 11:32N 31°20' E 121°40'0 0.0
2017-Mar-17 10:28N 31°20' E 121°40'0 0.0
2017-Mar-17 09:31N 31°20' E 121°40'0 0.0
2017-Mar-17 08:28N 31°20' E 121°40'0 0.0
2017-Mar-17 07:33N 31°20' E 121°40'0 0.0
2017-Mar-17 06:33N 31°20' E 121°40'0 0.0
2017-Mar-17 05:32N 31°20' E 121°40'0 0.1
2017-Mar-17 04:33N 31°20' E 121°40'3 3.2
2017-Mar-17 03:33N 31°19' E 121°43'1110.6
2017-Mar-17 02:33N 31°16' E 121°55'1211.5
2017-Mar-17 01:33N 31°12' E 122°08'7 7.5
2017-Mar-17 00:34N 31°08' E 122°15'12 0.6
2017-Mar-16 03:28N 31°13' E 122°28'65914.4
2017-Mar-14 05:33N 34°36' E 134°55'  
Track history (hours):
 
Tides and Currents Weather Stations Pressure Air Temp Water Temp Dewpoint Dewpoint Depression Visibility Wind Speed Wind Dir Waves Ship Positions

Jj Sky

Last reported at 2017-Mar-24 05:15 UTC. Time now 2017-Mar-30 06:38 UTC.
Position N 31°18' E 121°46'.

Length 148 m; draft 7.2 m.

Type: Ship (hazmat cat D). MMSI: 477397500.

Date/timePositionNaut miles runAvg speedWind from/ knotsBaromVisibWave heightAir tempDewpointWater temp
2017-Mar-24 05:15N 31°18' E 121°46'5 0.8
2017-Mar-23 22:25N 31°20' E 121°40'0 0.0
2017-Mar-23 21:08N 31°20' E 121°40'0 0.0
2017-Mar-23 20:29N 31°20' E 121°40'0 0.0
2017-Mar-23 19:28N 31°20' E 121°40'0 0.0
2017-Mar-23 18:28N 31°20' E 121°40'0 0.0
2017-Mar-23 17:33N 31°20' E 121°40'0 0.0
2017-Mar-23 16:33N 31°20' E 121°40'0 0.0
2017-Mar-23 15:32N 31°20' E 121°40'5 4.6
2017-Mar-23 14:33N 31°18' E 121°45'1010.2
2017-Mar-23 13:33N 31°15' E 121°57'1010.2
2017-Mar-23 12:33N 31°12' E 122°08'9 9.2
2017-Mar-23 11:33N 31°07' E 122°17'  
2017-Mar-21 05:33N 34°36' E 134°54'1514.9
2017-Mar-21 04:33N 34°37' E 135°12'3 2.9
2017-Mar-21 03:27N 34°39' E 135°15'0 0.0
2017-Mar-21 02:27N 34°39' E 135°15'0 0.0
2017-Mar-21 01:32N 34°39' E 135°15'0 0.0
2017-Mar-21 00:32N 34°39' E 135°15'0 0.1
2017-Mar-20 23:29N 34°39' E 135°15'0 0.1
2017-Mar-20 22:29N 34°39' E 135°15'6 6.2
2017-Mar-20 21:33N 34°39' E 135°21'2 2.0
2017-Mar-20 20:28N 34°39' E 135°24'0 0.0
2017-Mar-20 19:14N 34°39' E 135°24'0 0.0
2017-Mar-20 18:20N 34°39' E 135°24'0 0.0
2017-Mar-20 17:26N 34°39' E 135°24'0 0.0
2017-Mar-20 16:31N 34°39' E 135°24'0 0.1
2017-Mar-20 15:19N 34°39' E 135°24'0 0.1
2017-Mar-20 14:24N 34°39' E 135°24'0 0.0
2017-Mar-20 13:30N 34°39' E 135°24'0 0.0
2017-Mar-20 12:23N 34°39' E 135°24'0 0.0
2017-Mar-20 11:23N 34°39' E 135°24'0 0.0
2017-Mar-20 10:17N 34°39' E 135°24'0 0.0
2017-Mar-20 06:18N 34°39' E 135°24'0 0.0
2017-Mar-20 05:26N 34°39' E 135°24'0 0.0
2017-Mar-20 02:07N 34°39' E 135°24'0 0.0
2017-Mar-20 01:18N 34°39' E 135°24'0 0.1
2017-Mar-20 00:30N 34°39' E 135°24'0 0.1
2017-Mar-19 23:23N 34°39' E 135°24'0 0.1
2017-Mar-19 22:23N 34°39' E 135°24'1 1.4
2017-Mar-19 21:33N 34°38' E 135°23'1312.9
2017-Mar-19 20:33N 34°29' E 135°12'1211.5
2017-Mar-19 19:30N 34°21' E 135°02'1111.6
2017-Mar-19 18:33N 34°10' E 134°58'55613.4
2017-Mar-18 01:12N 31°03' E 124°36'914.4
2017-Mar-18 00:33N 31°03' E 124°26'1515.2
2017-Mar-17 23:34N 31°04' E 124°08'1615.7
2017-Mar-17 22:33N 31°04' E 123°50'1716.1
2017-Mar-17 21:32N 31°03' E 123°30'5215.5
2017-Mar-17 18:09N 31°06' E 122°29'711.8
2017-Mar-17 17:33N 31°06' E 122°21'1312.9
2017-Mar-17 16:33N 31°12' E 122°08'1211.6
2017-Mar-17 15:34N 31°16' E 121°55'1312.8
2017-Mar-17 14:33N 31°20' E 121°41'1 1.0
2017-Mar-17 13:33N 31°20' E 121°40'0 0.0
2017-Mar-17 12:32N 31°20' E 121°40'0 0.0
2017-Mar-17 11:32N 31°20' E 121°40'0 0.0
2017-Mar-17 10:28N 31°20' E 121°40'0 0.0
2017-Mar-17 09:31N 31°20' E 121°40'0 0.0
2017-Mar-17 08:28N 31°20' E 121°40'0 0.0
2017-Mar-17 07:33N 31°20' E 121°40'0 0.0
2017-Mar-17 06:33N 31°20' E 121°40'0 0.0
2017-Mar-17 05:32N 31°20' E 121°40'0 0.1
2017-Mar-17 04:33N 31°20' E 121°40'3 3.2
2017-Mar-17 03:33N 31°19' E 121°43'1110.6
2017-Mar-17 02:33N 31°16' E 121°55'1211.5
2017-Mar-17 01:33N 31°12' E 122°08'7 7.5
2017-Mar-17 00:34N 31°08' E 122°15'12 0.6
2017-Mar-16 03:28N 31°13' E 122°28'65914.4
2017-Mar-14 05:33N 34°36' E 134°55'  

Dump ship's entire track history